sensor_id;sensor_type;location;lat;lon;timestamp;P1;durP1;ratioP1;P2;durP2;ratioP2
19907;SDS011;10116;53.112;7.356;2023-07-13T00:01:43;1.30;;;0.90;;
19907;SDS011;10116;53.112;7.356;2023-07-13T00:04:11;3.03;;;1.13;;
19907;SDS011;10116;53.112;7.356;2023-07-13T00:06:36;1.20;;;1.10;;
19907;SDS011;10116;53.112;7.356;2023-07-13T00:09:02;2.70;;;0.90;;
19907;SDS011;10116;53.112;7.356;2023-07-13T00:11:27;4.70;;;4.50;;
19907;SDS011;10116;53.112;7.356;2023-07-13T00:13:53;1.03;;;1.03;;
19907;SDS011;10116;53.112;7.356;2023-07-13T00:16:19;0.90;;;0.90;;
19907;SDS011;10116;53.112;7.356;2023-07-13T00:18:45;0.77;;;0.77;;
19907;SDS011;10116;53.112;7.356;2023-07-13T00:21:11;0.83;;;0.83;;
19907;SDS011;10116;53.112;7.356;2023-07-13T00:23:39;1.47;;;1.20;;
19907;SDS011;10116;53.112;7.356;2023-07-13T00:26:06;2.50;;;2.40;;
19907;SDS011;10116;53.112;7.356;2023-07-13T00:28:34;3.30;;;1.00;;
19907;SDS011;10116;53.112;7.356;2023-07-13T00:31:00;1.60;;;0.93;;
19907;SDS011;10116;53.112;7.356;2023-07-13T00:33:27;1.30;;;1.20;;
19907;SDS011;10116;53.112;7.356;2023-07-13T00:35:54;1.97;;;1.00;;
19907;SDS011;10116;53.112;7.356;2023-07-13T00:38:21;1.50;;;0.80;;
19907;SDS011;10116;53.112;7.356;2023-07-13T00:40:48;1.20;;;1.03;;
19907;SDS011;10116;53.112;7.356;2023-07-13T00:43:16;1.67;;;1.10;;
19907;SDS011;10116;53.112;7.356;2023-07-13T00:48:09;0.90;;;0.90;;
19907;SDS011;10116;53.112;7.356;2023-07-13T00:50:37;1.23;;;1.00;;
19907;SDS011;10116;53.112;7.356;2023-07-13T00:53:04;1.33;;;0.90;;
19907;SDS011;10116;53.112;7.356;2023-07-13T00:55:29;1.60;;;1.10;;
19907;SDS011;10116;53.112;7.356;2023-07-13T00:57:55;4.67;;;4.30;;
19907;SDS011;10116;53.112;7.356;2023-07-13T01:00:21;1.30;;;0.97;;
19907;SDS011;10116;53.112;7.356;2023-07-13T01:02:48;1.27;;;1.00;;
19907;SDS011;10116;53.112;7.356;2023-07-13T01:05:19;2.60;;;1.20;;
19907;SDS011;10116;53.112;7.356;2023-07-13T01:07:47;1.17;;;1.00;;
19907;SDS011;10116;53.112;7.356;2023-07-13T01:10:15;1.23;;;1.00;;
19907;SDS011;10116;53.112;7.356;2023-07-13T01:12:41;4.73;;;4.40;;
19907;SDS011;10116;53.112;7.356;2023-07-13T01:18:01;1.33;;;1.20;;
19907;SDS011;10116;53.112;7.356;2023-07-13T01:20:27;1.03;;;0.97;;
19907;SDS011;10116;53.112;7.356;2023-07-13T01:22:53;1.10;;;0.97;;
19907;SDS011;10116;53.112;7.356;2023-07-13T01:25:19;2.50;;;1.57;;
19907;SDS011;10116;53.112;7.356;2023-07-13T01:27:45;2.40;;;2.00;;
19907;SDS011;10116;53.112;7.356;2023-07-13T01:30:11;1.17;;;1.07;;
19907;SDS011;10116;53.112;7.356;2023-07-13T01:32:36;1.63;;;1.20;;
19907;SDS011;10116;53.112;7.356;2023-07-13T01:35:02;1.10;;;1.00;;
19907;SDS011;10116;53.112;7.356;2023-07-13T01:37:28;0.97;;;0.97;;
19907;SDS011;10116;53.112;7.356;2023-07-13T01:39:58;1.57;;;0.90;;
19907;SDS011;10116;53.112;7.356;2023-07-13T01:42:24;3.70;;;1.07;;
19907;SDS011;10116;53.112;7.356;2023-07-13T01:44:49;2.00;;;1.20;;
19907;SDS011;10116;53.112;7.356;2023-07-13T01:47:15;3.33;;;1.10;;
19907;SDS011;10116;53.112;7.356;2023-07-13T01:49:41;1.53;;;1.10;;
19907;SDS011;10116;53.112;7.356;2023-07-13T01:52:07;1.40;;;1.17;;
19907;SDS011;10116;53.112;7.356;2023-07-13T01:54:32;1.57;;;1.20;;
19907;SDS011;10116;53.112;7.356;2023-07-13T01:56:59;1.67;;;1.17;;
19907;SDS011;10116;53.112;7.356;2023-07-13T01:59:25;4.30;;;4.10;;
19907;SDS011;10116;53.112;7.356;2023-07-13T02:01:50;1.30;;;1.03;;
19907;SDS011;10116;53.112;7.356;2023-07-13T02:04:16;1.37;;;1.00;;
19907;SDS011;10116;53.112;7.356;2023-07-13T02:06:41;1.97;;;1.20;;
19907;SDS011;10116;53.112;7.356;2023-07-13T02:09:07;5.13;;;1.60;;
19907;SDS011;10116;53.112;7.356;2023-07-13T02:11:33;2.97;;;2.70;;
19907;SDS011;10116;53.112;7.356;2023-07-13T02:13:59;2.60;;;1.30;;
19907;SDS011;10116;53.112;7.356;2023-07-13T02:16:27;5.17;;;4.83;;
19907;SDS011;10116;53.112;7.356;2023-07-13T02:18:53;1.27;;;1.07;;
19907;SDS011;10116;53.112;7.356;2023-07-13T02:21:20;5.87;;;5.37;;
19907;SDS011;10116;53.112;7.356;2023-07-13T02:23:45;1.30;;;1.13;;
19907;SDS011;10116;53.112;7.356;2023-07-13T02:26:11;5.50;;;5.20;;
19907;SDS011;10116;53.112;7.356;2023-07-13T02:28:36;1.50;;;1.30;;
19907;SDS011;10116;53.112;7.356;2023-07-13T02:31:06;4.73;;;4.43;;
19907;SDS011;10116;53.112;7.356;2023-07-13T02:33:33;1.57;;;1.20;;
19907;SDS011;10116;53.112;7.356;2023-07-13T02:35:58;1.93;;;1.83;;
19907;SDS011;10116;53.112;7.356;2023-07-13T02:38:24;1.67;;;1.50;;
19907;SDS011;10116;53.112;7.356;2023-07-13T02:40:49;2.47;;;1.23;;
19907;SDS011;10116;53.112;7.356;2023-07-13T02:43:15;4.37;;;4.17;;
19907;SDS011;10116;53.112;7.356;2023-07-13T02:45:44;1.33;;;1.07;;
19907;SDS011;10116;53.112;7.356;2023-07-13T02:48:12;1.90;;;1.00;;
19907;SDS011;10116;53.112;7.356;2023-07-13T02:50:39;1.80;;;1.60;;
19907;SDS011;10116;53.112;7.356;2023-07-13T02:53:04;8.10;;;1.40;;
19907;SDS011;10116;53.112;7.356;2023-07-13T02:55:30;2.00;;;1.27;;
19907;SDS011;10116;53.112;7.356;2023-07-13T02:57:56;2.20;;;1.13;;
19907;SDS011;10116;53.112;7.356;2023-07-13T03:00:22;1.23;;;1.13;;
19907;SDS011;10116;53.112;7.356;2023-07-13T03:02:48;6.67;;;2.13;;
19907;SDS011;10116;53.112;7.356;2023-07-13T03:05:13;2.43;;;1.30;;
19907;SDS011;10116;53.112;7.356;2023-07-13T03:07:40;2.23;;;1.50;;
19907;SDS011;10116;53.112;7.356;2023-07-13T03:10:05;4.43;;;1.53;;
19907;SDS011;10116;53.112;7.356;2023-07-13T03:12:32;1.57;;;1.40;;
19907;SDS011;10116;53.112;7.356;2023-07-13T03:14:57;3.57;;;3.27;;
19907;SDS011;10116;53.112;7.356;2023-07-13T03:17:23;1.40;;;1.10;;
19907;SDS011;10116;53.112;7.356;2023-07-13T03:19:49;4.13;;;3.93;;
19907;SDS011;10116;53.112;7.356;2023-07-13T03:22:19;3.00;;;1.40;;
19907;SDS011;10116;53.112;7.356;2023-07-13T03:24:44;3.80;;;1.40;;
19907;SDS011;10116;53.112;7.356;2023-07-13T03:27:10;1.87;;;1.40;;
19907;SDS011;10116;53.112;7.356;2023-07-13T03:29:36;3.47;;;3.17;;
19907;SDS011;10116;53.112;7.356;2023-07-13T03:32:02;1.33;;;1.10;;
19907;SDS011;10116;53.112;7.356;2023-07-13T03:34:29;1.93;;;1.30;;
19907;SDS011;10116;53.112;7.356;2023-07-13T03:36:55;1.67;;;1.43;;
19907;SDS011;10116;53.112;7.356;2023-07-13T03:39:21;3.07;;;1.40;;
19907;SDS011;10116;53.112;7.356;2023-07-13T03:41:47;1.33;;;1.23;;
19907;SDS011;10116;53.112;7.356;2023-07-13T03:44:13;2.40;;;2.20;;
19907;SDS011;10116;53.112;7.356;2023-07-13T03:46:40;2.47;;;1.50;;
19907;SDS011;10116;53.112;7.356;2023-07-13T03:49:06;1.87;;;1.20;;
19907;SDS011;10116;53.112;7.356;2023-07-13T03:51:31;3.13;;;1.37;;
19907;SDS011;10116;53.112;7.356;2023-07-13T03:53:57;2.83;;;1.37;;
19907;SDS011;10116;53.112;7.356;2023-07-13T03:56:23;2.00;;;1.30;;
19907;SDS011;10116;53.112;7.356;2023-07-13T03:58:49;3.10;;;1.40;;
19907;SDS011;10116;53.112;7.356;2023-07-13T04:01:16;3.23;;;1.20;;
19907;SDS011;10116;53.112;7.356;2023-07-13T04:03:44;2.20;;;1.20;;
19907;SDS011;10116;53.112;7.356;2023-07-13T04:06:22;1.53;;;1.33;;
19907;SDS011;10116;53.112;7.356;2023-07-13T04:08:52;2.50;;;2.30;;
19907;SDS011;10116;53.112;7.356;2023-07-13T04:11:19;1.37;;;1.10;;
19907;SDS011;10116;53.112;7.356;2023-07-13T04:13:47;3.57;;;3.30;;
19907;SDS011;10116;53.112;7.356;2023-07-13T04:16:13;1.53;;;1.20;;
19907;SDS011;10116;53.112;7.356;2023-07-13T04:18:40;3.30;;;3.10;;
19907;SDS011;10116;53.112;7.356;2023-07-13T04:21:06;3.70;;;1.80;;
19907;SDS011;10116;53.112;7.356;2023-07-13T04:23:34;4.10;;;1.43;;
19907;SDS011;10116;53.112;7.356;2023-07-13T04:26:00;5.17;;;1.50;;
19907;SDS011;10116;53.112;7.356;2023-07-13T04:28:25;1.90;;;1.60;;
19907;SDS011;10116;53.112;7.356;2023-07-13T04:30:52;2.03;;;1.93;;
19907;SDS011;10116;53.112;7.356;2023-07-13T04:33:18;1.50;;;1.20;;
19907;SDS011;10116;53.112;7.356;2023-07-13T04:35:47;3.30;;;3.00;;
19907;SDS011;10116;53.112;7.356;2023-07-13T04:38:19;1.47;;;1.10;;
19907;SDS011;10116;53.112;7.356;2023-07-13T04:40:46;4.97;;;4.67;;
19907;SDS011;10116;53.112;7.356;2023-07-13T04:43:12;5.00;;;3.20;;
19907;SDS011;10116;53.112;7.356;2023-07-13T04:45:37;3.80;;;3.50;;
19907;SDS011;10116;53.112;7.356;2023-07-13T04:48:03;4.30;;;4.00;;
19907;SDS011;10116;53.112;7.356;2023-07-13T04:50:29;5.90;;;4.13;;
19907;SDS011;10116;53.112;7.356;2023-07-13T04:52:54;4.17;;;3.87;;
19907;SDS011;10116;53.112;7.356;2023-07-13T04:55:20;3.43;;;3.03;;
19907;SDS011;10116;53.112;7.356;2023-07-13T04:57:46;3.20;;;1.90;;
19907;SDS011;10116;53.112;7.356;2023-07-13T05:00:12;2.97;;;2.77;;
19907;SDS011;10116;53.112;7.356;2023-07-13T05:02:40;10.80;;;4.00;;
19907;SDS011;10116;53.112;7.356;2023-07-13T05:05:08;6.53;;;4.70;;
19907;SDS011;10116;53.112;7.356;2023-07-13T05:07:34;3.17;;;1.97;;
19907;SDS011;10116;53.112;7.356;2023-07-13T05:09:59;8.73;;;4.10;;
19907;SDS011;10116;53.112;7.356;2023-07-13T05:12:26;4.80;;;4.40;;
19907;SDS011;10116;53.112;7.356;2023-07-13T05:14:51;4.47;;;4.07;;
19907;SDS011;10116;53.112;7.356;2023-07-13T05:17:17;2.30;;;2.07;;
19907;SDS011;10116;53.112;7.356;2023-07-13T05:19:43;5.63;;;4.17;;
19907;SDS011;10116;53.112;7.356;2023-07-13T05:22:08;4.47;;;4.07;;
19907;SDS011;10116;53.112;7.356;2023-07-13T05:24:34;4.57;;;4.13;;
19907;SDS011;10116;53.112;7.356;2023-07-13T05:26:59;4.93;;;4.30;;
19907;SDS011;10116;53.112;7.356;2023-07-13T05:29:25;5.37;;;4.97;;
19907;SDS011;10116;53.112;7.356;2023-07-13T05:31:51;4.77;;;4.37;;
19907;SDS011;10116;53.112;7.356;2023-07-13T05:34:16;5.43;;;4.60;;
19907;SDS011;10116;53.112;7.356;2023-07-13T05:36:42;4.97;;;4.57;;
19907;SDS011;10116;53.112;7.356;2023-07-13T05:39:08;5.37;;;3.67;;
19907;SDS011;10116;53.112;7.356;2023-07-13T05:41:34;4.73;;;4.30;;
19907;SDS011;10116;53.112;7.356;2023-07-13T05:44:00;2.87;;;2.67;;
19907;SDS011;10116;53.112;7.356;2023-07-13T05:46:26;3.73;;;3.37;;
19907;SDS011;10116;53.112;7.356;2023-07-13T05:48:51;4.20;;;2.30;;
19907;SDS011;10116;53.112;7.356;2023-07-13T05:51:17;4.20;;;3.90;;
19907;SDS011;10116;53.112;7.356;2023-07-13T05:53:42;4.20;;;3.93;;
19907;SDS011;10116;53.112;7.356;2023-07-13T05:56:08;3.00;;;2.70;;
19907;SDS011;10116;53.112;7.356;2023-07-13T05:58:33;4.57;;;4.17;;
19907;SDS011;10116;53.112;7.356;2023-07-13T06:01:10;3.87;;;3.57;;
19907;SDS011;10116;53.112;7.356;2023-07-13T06:03:37;3.40;;;3.10;;
19907;SDS011;10116;53.112;7.356;2023-07-13T06:06:03;4.00;;;1.87;;
19907;SDS011;10116;53.112;7.356;2023-07-13T06:08:30;3.50;;;3.17;;
19907;SDS011;10116;53.112;7.356;2023-07-13T06:11:01;2.03;;;1.83;;
19907;SDS011;10116;53.112;7.356;2023-07-13T06:13:37;3.00;;;1.63;;
19907;SDS011;10116;53.112;7.356;2023-07-13T06:16:03;5.00;;;3.97;;
19907;SDS011;10116;53.112;7.356;2023-07-13T06:18:35;3.13;;;2.70;;
19907;SDS011;10116;53.112;7.356;2023-07-13T06:21:06;4.93;;;4.57;;
19907;SDS011;10116;53.112;7.356;2023-07-13T06:23:35;4.40;;;3.90;;
19907;SDS011;10116;53.112;7.356;2023-07-13T06:26:02;4.30;;;4.00;;
19907;SDS011;10116;53.112;7.356;2023-07-13T06:28:28;3.93;;;3.63;;
19907;SDS011;10116;53.112;7.356;2023-07-13T06:30:56;5.50;;;1.67;;
19907;SDS011;10116;53.112;7.356;2023-07-13T06:33:22;4.73;;;3.40;;
19907;SDS011;10116;53.112;7.356;2023-07-13T06:35:47;7.00;;;5.03;;
19907;SDS011;10116;53.112;7.356;2023-07-13T06:38:13;4.37;;;3.97;;
19907;SDS011;10116;53.112;7.356;2023-07-13T06:40:39;5.47;;;4.60;;
19907;SDS011;10116;53.112;7.356;2023-07-13T06:43:04;5.97;;;3.87;;
19907;SDS011;10116;53.112;7.356;2023-07-13T06:45:30;6.77;;;6.10;;
19907;SDS011;10116;53.112;7.356;2023-07-13T06:47:57;4.53;;;4.10;;
19907;SDS011;10116;53.112;7.356;2023-07-13T06:50:23;2.87;;;2.60;;
19907;SDS011;10116;53.112;7.356;2023-07-13T06:52:48;7.10;;;4.50;;
19907;SDS011;10116;53.112;7.356;2023-07-13T06:55:14;5.17;;;3.60;;
19907;SDS011;10116;53.112;7.356;2023-07-13T06:57:40;5.23;;;4.43;;
19907;SDS011;10116;53.112;7.356;2023-07-13T07:00:05;9.03;;;5.20;;
19907;SDS011;10116;53.112;7.356;2023-07-13T07:02:31;6.23;;;5.23;;
19907;SDS011;10116;53.112;7.356;2023-07-13T07:04:57;4.27;;;2.70;;
19907;SDS011;10116;53.112;7.356;2023-07-13T07:07:26;5.73;;;2.60;;
19907;SDS011;10116;53.112;7.356;2023-07-13T07:09:51;7.37;;;4.90;;
19907;SDS011;10116;53.112;7.356;2023-07-13T07:12:17;5.60;;;4.10;;
19907;SDS011;10116;53.112;7.356;2023-07-13T07:14:42;2.77;;;2.43;;
19907;SDS011;10116;53.112;7.356;2023-07-13T07:17:08;4.03;;;1.77;;
19907;SDS011;10116;53.112;7.356;2023-07-13T07:19:34;5.37;;;4.47;;
19907;SDS011;10116;53.112;7.356;2023-07-13T07:22:00;4.17;;;2.00;;
19907;SDS011;10116;53.112;7.356;2023-07-13T07:24:26;3.53;;;3.27;;
19907;SDS011;10116;53.112;7.356;2023-07-13T07:26:51;4.30;;;3.67;;
19907;SDS011;10116;53.112;7.356;2023-07-13T07:29:17;4.30;;;3.60;;
19907;SDS011;10116;53.112;7.356;2023-07-13T07:31:42;4.20;;;2.63;;
19907;SDS011;10116;53.112;7.356;2023-07-13T07:34:08;4.93;;;3.80;;
19907;SDS011;10116;53.112;7.356;2023-07-13T07:36:34;3.50;;;3.17;;
19907;SDS011;10116;53.112;7.356;2023-07-13T07:38:59;3.73;;;2.20;;
19907;SDS011;10116;53.112;7.356;2023-07-13T07:41:25;6.47;;;3.27;;
19907;SDS011;10116;53.112;7.356;2023-07-13T07:43:51;4.20;;;2.13;;
19907;SDS011;10116;53.112;7.356;2023-07-13T07:46:16;3.50;;;2.67;;
19907;SDS011;10116;53.112;7.356;2023-07-13T07:48:42;3.40;;;3.10;;
19907;SDS011;10116;53.112;7.356;2023-07-13T07:51:07;3.00;;;2.57;;
19907;SDS011;10116;53.112;7.356;2023-07-13T07:53:33;3.20;;;3.00;;
19907;SDS011;10116;53.112;7.356;2023-07-13T07:55:58;4.73;;;3.03;;
19907;SDS011;10116;53.112;7.356;2023-07-13T07:58:24;4.80;;;4.40;;
19907;SDS011;10116;53.112;7.356;2023-07-13T08:00:49;7.20;;;3.60;;
19907;SDS011;10116;53.112;7.356;2023-07-13T08:03:15;4.80;;;3.67;;
19907;SDS011;10116;53.112;7.356;2023-07-13T08:05:41;5.03;;;4.57;;
19907;SDS011;10116;53.112;7.356;2023-07-13T08:08:07;2.50;;;2.30;;
19907;SDS011;10116;53.112;7.356;2023-07-13T08:10:34;2.97;;;2.77;;
19907;SDS011;10116;53.112;7.356;2023-07-13T08:13:01;4.60;;;4.20;;
19907;SDS011;10116;53.112;7.356;2023-07-13T08:15:27;6.00;;;3.57;;
19907;SDS011;10116;53.112;7.356;2023-07-13T08:17:53;3.23;;;2.93;;
19907;SDS011;10116;53.112;7.356;2023-07-13T08:20:18;5.30;;;4.80;;
19907;SDS011;10116;53.112;7.356;2023-07-13T08:22:44;4.40;;;4.00;;
19907;SDS011;10116;53.112;7.356;2023-07-13T08:25:10;4.23;;;3.50;;
19907;SDS011;10116;53.112;7.356;2023-07-13T08:27:36;4.13;;;3.83;;
19907;SDS011;10116;53.112;7.356;2023-07-13T08:30:02;5.13;;;4.83;;
19907;SDS011;10116;53.112;7.356;2023-07-13T08:32:28;5.90;;;4.07;;
19907;SDS011;10116;53.112;7.356;2023-07-13T08:34:54;1.80;;;1.50;;
19907;SDS011;10116;53.112;7.356;2023-07-13T08:37:19;2.17;;;1.60;;
19907;SDS011;10116;53.112;7.356;2023-07-13T08:39:45;4.10;;;1.90;;
19907;SDS011;10116;53.112;7.356;2023-07-13T08:42:13;3.87;;;3.47;;
19907;SDS011;10116;53.112;7.356;2023-07-13T08:44:46;6.50;;;3.23;;
19907;SDS011;10116;53.112;7.356;2023-07-13T08:47:22;4.53;;;4.23;;
19907;SDS011;10116;53.112;7.356;2023-07-13T08:49:49;3.80;;;3.57;;
19907;SDS011;10116;53.112;7.356;2023-07-13T08:52:17;4.73;;;3.27;;
19907;SDS011;10116;53.112;7.356;2023-07-13T08:55:02;5.43;;;5.13;;
19907;SDS011;10116;53.112;7.356;2023-07-13T08:57:36;5.60;;;4.17;;
19907;SDS011;10116;53.112;7.356;2023-07-13T09:00:05;3.90;;;3.60;;
19907;SDS011;10116;53.112;7.356;2023-07-13T09:05:26;4.80;;;3.47;;
19907;SDS011;10116;53.112;7.356;2023-07-13T09:10:47;5.17;;;4.73;;
19907;SDS011;10116;53.112;7.356;2023-07-13T09:13:30;2.17;;;2.03;;
19907;SDS011;10116;53.112;7.356;2023-07-13T09:16:00;6.47;;;3.70;;
19907;SDS011;10116;53.112;7.356;2023-07-13T09:23:47;7.40;;;4.37;;
19907;SDS011;10116;53.112;7.356;2023-07-13T09:28:43;4.70;;;4.40;;
19907;SDS011;10116;53.112;7.356;2023-07-13T09:31:16;4.30;;;4.00;;
19907;SDS011;10116;53.112;7.356;2023-07-13T09:33:46;5.03;;;3.60;;
19907;SDS011;10116;53.112;7.356;2023-07-13T09:36:17;5.30;;;4.57;;
19907;SDS011;10116;53.112;7.356;2023-07-13T09:47:21;6.03;;;4.67;;
19907;SDS011;10116;53.112;7.356;2023-07-13T09:49:59;15.37;;;4.97;;
19907;SDS011;10116;53.112;7.356;2023-07-13T09:52:26;3.23;;;1.87;;
19907;SDS011;10116;53.112;7.356;2023-07-13T09:54:53;6.83;;;3.50;;
19907;SDS011;10116;53.112;7.356;2023-07-13T09:57:25;3.50;;;1.67;;
19907;SDS011;10116;53.112;7.356;2023-07-13T09:59:53;4.47;;;3.97;;
19907;SDS011;10116;53.112;7.356;2023-07-13T10:04:55;6.40;;;2.97;;
19907;SDS011;10116;53.112;7.356;2023-07-13T10:07:23;6.13;;;3.50;;
19907;SDS011;10116;53.112;7.356;2023-07-13T10:09:52;5.90;;;3.70;;
19907;SDS011;10116;53.112;7.356;2023-07-13T10:12:19;6.23;;;4.77;;
19907;SDS011;10116;53.112;7.356;2023-07-13T10:14:45;4.17;;;3.77;;
19907;SDS011;10116;53.112;7.356;2023-07-13T10:17:13;7.27;;;6.53;;
19907;SDS011;10116;53.112;7.356;2023-07-13T10:19:41;4.37;;;3.97;;
19907;SDS011;10116;53.112;7.356;2023-07-13T10:25:13;2.60;;;2.43;;
19907;SDS011;10116;53.112;7.356;2023-07-13T10:27:45;4.40;;;4.00;;
19907;SDS011;10116;53.112;7.356;2023-07-13T10:32:57;1.90;;;1.80;;
19907;SDS011;10116;53.112;7.356;2023-07-13T10:35:24;3.93;;;3.50;;
19907;SDS011;10116;53.112;7.356;2023-07-13T10:38:03;3.33;;;3.03;;
19907;SDS011;10116;53.112;7.356;2023-07-13T10:40:39;3.13;;;2.47;;
19907;SDS011;10116;53.112;7.356;2023-07-13T10:43:13;4.20;;;3.00;;
19907;SDS011;10116;53.112;7.356;2023-07-13T10:45:45;4.37;;;3.40;;
19907;SDS011;10116;53.112;7.356;2023-07-13T10:48:15;3.13;;;1.97;;
19907;SDS011;10116;53.112;7.356;2023-07-13T10:50:43;4.17;;;3.77;;
19907;SDS011;10116;53.112;7.356;2023-07-13T10:53:17;12.63;;;4.37;;
19907;SDS011;10116;53.112;7.356;2023-07-13T10:58:42;3.07;;;2.87;;
19907;SDS011;10116;53.112;7.356;2023-07-13T11:01:17;2.10;;;2.00;;
19907;SDS011;10116;53.112;7.356;2023-07-13T11:08:38;3.53;;;3.23;;
19907;SDS011;10116;53.112;7.356;2023-07-13T11:18:49;3.10;;;2.90;;
19907;SDS011;10116;53.112;7.356;2023-07-13T11:21:18;5.10;;;2.90;;
19907;SDS011;10116;53.112;7.356;2023-07-13T11:24:04;2.73;;;2.53;;
19907;SDS011;10116;53.112;7.356;2023-07-13T11:31:42;3.50;;;2.90;;
19907;SDS011;10116;53.112;7.356;2023-07-13T11:34:12;3.37;;;3.17;;
19907;SDS011;10116;53.112;7.356;2023-07-13T11:36:41;2.53;;;2.43;;
19907;SDS011;10116;53.112;7.356;2023-07-13T11:41:43;2.47;;;2.27;;
19907;SDS011;10116;53.112;7.356;2023-07-13T11:44:17;8.33;;;3.10;;
19907;SDS011;10116;53.112;7.356;2023-07-13T11:46:49;2.30;;;2.20;;
19907;SDS011;10116;53.112;7.356;2023-07-13T11:49:17;2.83;;;2.63;;
19907;SDS011;10116;53.112;7.356;2023-07-13T11:51:45;3.17;;;3.07;;
19907;SDS011;10116;53.112;7.356;2023-07-13T11:54:28;2.30;;;2.10;;
19907;SDS011;10116;53.112;7.356;2023-07-13T11:58:00;3.40;;;2.93;;
19907;SDS011;10116;53.112;7.356;2023-07-13T12:00:09;2.30;;;2.20;;
19907;SDS011;10116;53.112;7.356;2023-07-13T12:02:40;1.60;;;1.60;;
19907;SDS011;10116;53.112;7.356;2023-07-13T12:05:10;3.10;;;3.00;;
19907;SDS011;10116;53.112;7.356;2023-07-13T12:07:38;2.43;;;2.33;;
19907;SDS011;10116;53.112;7.356;2023-07-13T12:10:17;4.93;;;4.63;;
19907;SDS011;10116;53.112;7.356;2023-07-13T12:13:02;3.97;;;3.77;;
19907;SDS011;10116;53.112;7.356;2023-07-13T12:15:39;3.70;;;3.50;;
19907;SDS011;10116;53.112;7.356;2023-07-13T12:18:14;4.40;;;4.03;;
19907;SDS011;10116;53.112;7.356;2023-07-13T12:20:43;4.00;;;2.37;;
19907;SDS011;10116;53.112;7.356;2023-07-13T12:23:30;3.20;;;3.10;;
19907;SDS011;10116;53.112;7.356;2023-07-13T12:26:00;3.10;;;2.80;;
19907;SDS011;10116;53.112;7.356;2023-07-13T12:31:02;3.50;;;3.20;;
19907;SDS011;10116;53.112;7.356;2023-07-13T12:33:43;4.00;;;1.80;;
19907;SDS011;10116;53.112;7.356;2023-07-13T12:36:09;3.97;;;2.87;;
19907;SDS011;10116;53.112;7.356;2023-07-13T12:38:37;3.27;;;3.10;;
19907;SDS011;10116;53.112;7.356;2023-07-13T12:41:03;2.80;;;1.80;;
19907;SDS011;10116;53.112;7.356;2023-07-13T12:43:29;2.80;;;2.60;;
19907;SDS011;10116;53.112;7.356;2023-07-13T12:46:03;5.20;;;5.00;;
19907;SDS011;10116;53.112;7.356;2023-07-13T12:48:40;6.20;;;4.50;;
19907;SDS011;10116;53.112;7.356;2023-07-13T12:51:08;4.10;;;3.70;;
19907;SDS011;10116;53.112;7.356;2023-07-13T12:53:38;5.10;;;4.90;;
19907;SDS011;10116;53.112;7.356;2023-07-13T12:56:08;4.63;;;4.33;;
19907;SDS011;10116;53.112;7.356;2023-07-13T12:58:42;3.47;;;3.23;;
19907;SDS011;10116;53.112;7.356;2023-07-13T13:01:09;3.10;;;3.00;;
19907;SDS011;10116;53.112;7.356;2023-07-13T13:03:45;3.43;;;3.13;;
19907;SDS011;10116;53.112;7.356;2023-07-13T13:08:43;3.80;;;3.60;;
19907;SDS011;10116;53.112;7.356;2023-07-13T13:11:16;4.43;;;4.13;;
19907;SDS011;10116;53.112;7.356;2023-07-13T13:13:43;3.40;;;3.27;;
19907;SDS011;10116;53.112;7.356;2023-07-13T13:16:11;2.87;;;2.77;;
19907;SDS011;10116;53.112;7.356;2023-07-13T13:18:59;3.77;;;3.47;;
19907;SDS011;10116;53.112;7.356;2023-07-13T13:21:47;2.70;;;2.60;;
19907;SDS011;10116;53.112;7.356;2023-07-13T13:24:16;2.80;;;2.57;;
19907;SDS011;10116;53.112;7.356;2023-07-13T13:26:43;3.23;;;3.13;;
19907;SDS011;10116;53.112;7.356;2023-07-13T13:29:17;4.10;;;3.80;;
19907;SDS011;10116;53.112;7.356;2023-07-13T13:31:49;2.83;;;2.70;;
19907;SDS011;10116;53.112;7.356;2023-07-13T13:34:15;4.00;;;3.33;;
19907;SDS011;10116;53.112;7.356;2023-07-13T13:36:42;3.20;;;1.97;;
19907;SDS011;10116;53.112;7.356;2023-07-13T13:41:43;8.60;;;3.43;;
19907;SDS011;10116;53.112;7.356;2023-07-13T13:44:09;3.80;;;3.50;;
19907;SDS011;10116;53.112;7.356;2023-07-13T13:46:35;2.90;;;2.70;;
19907;SDS011;10116;53.112;7.356;2023-07-13T13:49:01;3.07;;;2.97;;
19907;SDS011;10116;53.112;7.356;2023-07-13T13:51:27;3.27;;;2.97;;
19907;SDS011;10116;53.112;7.356;2023-07-13T13:53:54;3.30;;;3.20;;
19907;SDS011;10116;53.112;7.356;2023-07-13T13:56:20;3.20;;;3.10;;
19907;SDS011;10116;53.112;7.356;2023-07-13T13:58:46;3.03;;;2.83;;
19907;SDS011;10116;53.112;7.356;2023-07-13T14:01:21;3.53;;;3.43;;
19907;SDS011;10116;53.112;7.356;2023-07-13T14:03:48;3.10;;;2.90;;
19907;SDS011;10116;53.112;7.356;2023-07-13T14:06:16;3.70;;;3.50;;
19907;SDS011;10116;53.112;7.356;2023-07-13T14:08:42;4.37;;;4.17;;
19907;SDS011;10116;53.112;7.356;2023-07-13T14:11:12;3.83;;;3.53;;
19907;SDS011;10116;53.112;7.356;2023-07-13T14:13:41;3.30;;;3.10;;
19907;SDS011;10116;53.112;7.356;2023-07-13T14:16:12;4.60;;;4.40;;
19907;SDS011;10116;53.112;7.356;2023-07-13T14:18:41;3.17;;;2.93;;
19907;SDS011;10116;53.112;7.356;2023-07-13T14:21:10;3.13;;;3.00;;
19907;SDS011;10116;53.112;7.356;2023-07-13T14:23:41;3.00;;;2.17;;
19907;SDS011;10116;53.112;7.356;2023-07-13T14:26:15;4.53;;;4.33;;
19907;SDS011;10116;53.112;7.356;2023-07-13T14:28:53;3.70;;;3.40;;
19907;SDS011;10116;53.112;7.356;2023-07-13T14:31:21;3.67;;;3.43;;
19907;SDS011;10116;53.112;7.356;2023-07-13T14:33:48;3.50;;;3.20;;
19907;SDS011;10116;53.112;7.356;2023-07-13T14:38:51;4.20;;;3.93;;
19907;SDS011;10116;53.112;7.356;2023-07-13T14:41:18;4.13;;;3.90;;
19907;SDS011;10116;53.112;7.356;2023-07-13T14:43:44;4.10;;;3.80;;
19907;SDS011;10116;53.112;7.356;2023-07-13T14:46:18;3.63;;;3.43;;
19907;SDS011;10116;53.112;7.356;2023-07-13T14:48:59;4.03;;;3.73;;
19907;SDS011;10116;53.112;7.356;2023-07-13T14:51:26;2.80;;;2.70;;
19907;SDS011;10116;53.112;7.356;2023-07-13T14:53:52;2.90;;;2.70;;
19907;SDS011;10116;53.112;7.356;2023-07-13T14:56:17;2.77;;;2.63;;
19907;SDS011;10116;53.112;7.356;2023-07-13T14:58:43;2.87;;;2.73;;
19907;SDS011;10116;53.112;7.356;2023-07-13T15:01:11;2.80;;;2.60;;
19907;SDS011;10116;53.112;7.356;2023-07-13T15:03:44;3.07;;;2.87;;
19907;SDS011;10116;53.112;7.356;2023-07-13T15:06:12;1.63;;;1.47;;
19907;SDS011;10116;53.112;7.356;2023-07-13T15:08:38;2.67;;;2.57;;
19907;SDS011;10116;53.112;7.356;2023-07-13T15:11:06;3.23;;;3.03;;
19907;SDS011;10116;53.112;7.356;2023-07-13T15:13:40;3.30;;;3.00;;
19907;SDS011;10116;53.112;7.356;2023-07-13T15:16:17;2.53;;;1.53;;
19907;SDS011;10116;53.112;7.356;2023-07-13T15:18:46;1.30;;;1.20;;
19907;SDS011;10116;53.112;7.356;2023-07-13T15:21:14;1.23;;;1.07;;
19907;SDS011;10116;53.112;7.356;2023-07-13T15:23:46;1.47;;;1.37;;
19907;SDS011;10116;53.112;7.356;2023-07-13T15:26:12;1.53;;;1.43;;
19907;SDS011;10116;53.112;7.356;2023-07-13T15:28:40;1.43;;;1.33;;
19907;SDS011;10116;53.112;7.356;2023-07-13T15:33:44;11.20;;;10.30;;
19907;SDS011;10116;53.112;7.356;2023-07-13T15:36:13;11.13;;;9.93;;
19907;SDS011;10116;53.112;7.356;2023-07-13T15:38:39;16.40;;;8.63;;
19907;SDS011;10116;53.112;7.356;2023-07-13T15:41:19;14.33;;;9.83;;
19907;SDS011;10116;53.112;7.356;2023-07-13T15:43:49;10.87;;;8.40;;
19907;SDS011;10116;53.112;7.356;2023-07-13T15:46:17;12.27;;;9.20;;
19907;SDS011;10116;53.112;7.356;2023-07-13T15:48:48;11.10;;;8.83;;
19907;SDS011;10116;53.112;7.356;2023-07-13T15:51:23;14.57;;;9.87;;
19907;SDS011;10116;53.112;7.356;2023-07-13T15:53:53;14.03;;;10.33;;
19907;SDS011;10116;53.112;7.356;2023-07-13T15:56:24;18.83;;;12.17;;
19907;SDS011;10116;53.112;7.356;2023-07-13T15:58:55;15.80;;;12.07;;
19907;SDS011;10116;53.112;7.356;2023-07-13T16:01:22;18.53;;;11.43;;
19907;SDS011;10116;53.112;7.356;2023-07-13T16:03:49;19.40;;;14.50;;
19907;SDS011;10116;53.112;7.356;2023-07-13T16:06:29;11.87;;;8.93;;